createdAt,value
2023-05-24T00:00:46.776Z,6.70
2023-05-24T00:03:18.953Z,6.60
2023-05-24T00:05:47.892Z,7.30
2023-05-24T00:08:16.512Z,7.10
2023-05-24T00:10:44.807Z,7.00
2023-05-24T00:13:13.144Z,6.50
2023-05-24T00:15:41.465Z,6.40
2023-05-24T00:18:09.689Z,6.40
2023-05-24T00:20:39.509Z,6.30
2023-05-24T00:23:08.057Z,6.30
2023-05-24T00:25:36.195Z,6.30
2023-05-24T00:28:04.268Z,6.20
2023-05-24T00:30:32.302Z,6.70
2023-05-24T00:33:00.385Z,6.20
2023-05-24T00:35:28.498Z,6.20
2023-05-24T00:37:58.175Z,6.20
2023-05-24T00:40:26.300Z,6.10
2023-05-24T00:42:54.340Z,6.00
2023-05-24T00:45:25.771Z,6.00
2023-05-24T00:47:54.398Z,6.00
2023-05-24T00:50:22.982Z,6.00
2023-05-24T00:52:52.645Z,6.00
2023-05-24T00:55:22.361Z,5.90
2023-05-24T00:57:52.377Z,5.90
2023-05-24T01:00:20.832Z,6.00
2023-05-24T01:02:49.869Z,5.90
2023-05-24T01:05:18.547Z,5.90
2023-05-24T01:07:55.601Z,6.20
2023-05-24T01:10:33.181Z,6.30
2023-05-24T01:13:22.006Z,5.80
2023-05-24T01:15:55.428Z,5.80
2023-05-24T01:18:30.390Z,6.30
2023-05-24T01:21:08.546Z,5.70
2023-05-24T01:23:46.413Z,5.70
2023-05-24T01:26:33.404Z,5.70
2023-05-24T01:29:04.898Z,5.70
2023-05-24T01:31:34.522Z,5.70
2023-05-24T01:34:02.644Z,5.70
2023-05-24T01:36:30.852Z,5.60
2023-05-24T01:38:59.114Z,5.60
2023-05-24T01:41:38.851Z,6.00
2023-05-24T01:44:16.706Z,5.50
2023-05-24T01:46:51.085Z,5.40
2023-05-24T01:49:23.745Z,5.50
2023-05-24T01:51:57.503Z,5.40
2023-05-24T01:54:29.581Z,5.40
2023-05-24T01:56:59.833Z,5.60
2023-05-24T01:59:31.294Z,6.00
2023-05-24T02:01:59.639Z,5.70
2023-05-24T02:04:27.984Z,6.30
2023-05-24T02:06:56.144Z,5.90
2023-05-24T02:09:24.264Z,5.40
2023-05-24T02:11:52.428Z,5.80
2023-05-24T02:14:20.567Z,6.00
2023-05-24T02:16:50.872Z,5.40
2023-05-24T02:19:19.590Z,5.80
2023-05-24T02:21:47.813Z,5.40
2023-05-24T02:24:16.477Z,5.30
2023-05-24T02:26:44.656Z,5.50
2023-05-24T02:29:12.848Z,5.40
2023-05-24T02:31:41.133Z,5.30
2023-05-24T02:34:10.829Z,5.60
2023-05-24T02:36:38.931Z,5.30
2023-05-24T02:39:08.031Z,6.00
2023-05-24T02:41:36.121Z,5.30
2023-05-24T02:44:04.192Z,5.50
2023-05-24T02:46:32.478Z,5.20
2023-05-24T02:49:00.827Z,5.20
2023-05-24T02:51:30.433Z,4.90
2023-05-24T02:53:58.478Z,5.30
2023-05-24T02:56:27.152Z,5.20
2023-05-24T02:58:55.699Z,5.20
2023-05-24T03:01:24.121Z,5.20
2023-05-24T03:03:52.332Z,5.20
2023-05-24T03:06:20.879Z,5.80
2023-05-24T03:08:51.114Z,5.10
2023-05-24T03:11:22.267Z,5.20
2023-05-24T03:13:51.016Z,5.10
2023-05-24T03:16:19.983Z,5.10
2023-05-24T03:18:50.670Z,5.40
2023-05-24T03:21:20.915Z,5.60
2023-05-24T03:23:50.905Z,5.00
2023-05-24T03:26:20.694Z,5.00
2023-05-24T03:28:50.627Z,5.00
2023-05-24T03:31:20.863Z,5.80
2023-05-24T03:33:49.107Z,5.00
2023-05-24T03:36:17.166Z,5.30
2023-05-24T03:38:45.338Z,5.00
2023-05-24T03:41:14.908Z,5.10
2023-05-24T03:43:42.977Z,5.00
2023-05-24T03:46:11.177Z,5.40
2023-05-24T03:48:39.298Z,5.20
2023-05-24T03:51:09.329Z,5.20
2023-05-24T03:53:37.322Z,5.20
2023-05-24T03:56:05.595Z,5.20
2023-05-24T03:58:35.185Z,5.20
2023-05-24T04:01:03.588Z,5.20
2023-05-24T04:03:34.279Z,5.10
2023-05-24T04:06:02.597Z,5.30
2023-05-24T04:08:31.504Z,5.20
2023-05-24T04:10:59.623Z,5.20
2023-05-24T04:13:27.721Z,5.10
2023-05-24T04:15:57.095Z,5.10
2023-05-24T04:18:25.221Z,5.10
2023-05-24T04:20:53.447Z,5.30
2023-05-24T04:23:21.988Z,5.20
2023-05-24T04:25:50.180Z,5.30
2023-05-24T04:28:18.238Z,5.40
2023-05-24T04:30:46.285Z,5.50
2023-05-24T04:33:16.938Z,5.60
2023-05-24T04:35:45.621Z,5.80
2023-05-24T04:38:14.329Z,5.90
2023-05-24T04:40:42.735Z,6.10
2023-05-24T04:43:11.857Z,6.20
2023-05-24T04:45:39.909Z,6.30
2023-05-24T04:48:08.271Z,6.40
2023-05-24T04:50:37.782Z,6.50
2023-05-24T04:53:05.899Z,6.60
2023-05-24T04:55:33.937Z,6.60
2023-05-24T04:58:02.649Z,6.80
2023-05-24T05:00:30.726Z,6.90
2023-05-24T05:02:58.949Z,7.00
2023-05-24T05:05:27.298Z,7.10
2023-05-24T05:07:57.195Z,7.30
2023-05-24T05:10:25.298Z,7.40
2023-05-24T05:12:53.433Z,7.60
2023-05-24T05:15:24.014Z,7.70
2023-05-24T05:17:52.412Z,7.80
2023-05-24T05:20:20.941Z,8.00
2023-05-24T05:22:49.390Z,8.00
2023-05-24T05:25:19.027Z,8.10
2023-05-24T05:27:47.128Z,8.00
2023-05-24T05:30:15.579Z,8.30
2023-05-24T05:32:43.828Z,8.10
2023-05-24T05:35:11.988Z,8.00
2023-05-24T05:37:40.254Z,8.00
2023-05-24T05:40:09.448Z,8.00
2023-05-24T05:42:38.890Z,8.00
2023-05-24T05:45:08.290Z,8.20
2023-05-24T05:47:36.981Z,8.20
2023-05-24T05:50:05.467Z,8.30
2023-05-24T05:52:33.678Z,8.50
2023-05-24T05:55:01.794Z,8.60
2023-05-24T05:57:29.917Z,8.70
2023-05-24T05:59:59.427Z,8.80
2023-05-24T06:02:27.765Z,8.90
2023-05-24T06:04:56.119Z,9.10
2023-05-24T06:07:24.293Z,9.20
2023-05-24T06:09:52.469Z,9.50
2023-05-24T06:12:20.531Z,9.50
2023-05-24T06:14:50.684Z,9.70
2023-05-24T06:17:24.268Z,9.80
2023-05-24T06:19:53.773Z,9.80
2023-05-24T06:22:23.019Z,10.10
2023-05-24T06:24:51.102Z,10.00
2023-05-24T06:27:19.182Z,10.00
2023-05-24T06:29:47.273Z,10.00
2023-05-24T06:32:15.433Z,10.00
2023-05-24T06:34:44.864Z,9.90
2023-05-24T06:37:15.101Z,9.90
2023-05-24T06:39:43.360Z,9.90
2023-05-24T06:42:11.499Z,9.90
2023-05-24T06:44:39.596Z,9.90
2023-05-24T06:47:09.436Z,9.90
2023-05-24T06:49:38.179Z,10.00
2023-05-24T06:52:09.009Z,10.10
2023-05-24T06:54:37.311Z,10.10
2023-05-24T06:57:06.141Z,10.20
2023-05-24T06:59:34.248Z,10.20
2023-05-24T07:02:03.940Z,10.30
2023-05-24T07:04:32.630Z,10.40
2023-05-24T07:07:00.851Z,10.50
2023-05-24T07:09:30.382Z,10.70
2023-05-24T07:11:58.773Z,10.80
2023-05-24T07:14:27.504Z,10.90
2023-05-24T07:16:57.675Z,10.80
2023-05-24T07:19:29.236Z,10.80
2023-05-24T07:21:57.792Z,11.00
2023-05-24T07:24:26.433Z,11.10
2023-05-24T07:26:56.826Z,11.30
2023-05-24T07:29:26.128Z,11.40
2023-05-24T07:31:55.962Z,11.40
2023-05-24T07:34:27.681Z,11.60
2023-05-24T07:36:56.150Z,11.80
2023-05-24T07:39:25.364Z,11.80
2023-05-24T07:41:55.114Z,11.90
2023-05-24T07:44:23.913Z,12.00
2023-05-24T07:46:52.413Z,12.20
2023-05-24T07:49:20.874Z,12.40
2023-05-24T07:51:49.384Z,12.60
2023-05-24T07:54:17.723Z,12.90
2023-05-24T07:56:46.031Z,13.10
2023-05-24T07:59:15.951Z,13.20
2023-05-24T08:01:44.292Z,13.20
2023-05-24T08:04:12.683Z,13.00
2023-05-24T08:06:41.053Z,12.90
2023-05-24T08:09:10.620Z,12.90
2023-05-24T08:11:38.996Z,13.10
2023-05-24T08:14:07.305Z,13.50
2023-05-24T08:16:37.032Z,14.10
2023-05-24T08:19:05.413Z,14.40
2023-05-24T08:21:34.015Z,14.60
2023-05-24T08:24:02.416Z,14.60
2023-05-24T08:26:30.845Z,14.60
2023-05-24T08:28:59.194Z,14.60
2023-05-24T08:31:27.950Z,14.60
2023-05-24T08:33:57.969Z,14.70
2023-05-24T08:36:26.794Z,14.70
2023-05-24T08:38:55.120Z,14.70
2023-05-24T08:41:24.232Z,14.80
2023-05-24T08:43:54.082Z,14.90
2023-05-24T08:46:23.440Z,14.90
2023-05-24T08:48:53.189Z,14.80
2023-05-24T08:51:23.268Z,14.80
2023-05-24T08:53:52.864Z,14.80
2023-05-24T08:56:21.826Z,14.70
2023-05-24T08:58:51.114Z,14.70
2023-05-24T09:01:19.608Z,14.50
2023-05-24T09:03:48.899Z,14.30
2023-05-24T09:06:19.140Z,14.10
2023-05-24T09:08:52.500Z,13.80
2023-05-24T09:11:23.031Z,13.50
2023-05-24T09:13:51.938Z,13.20
2023-05-24T09:16:20.393Z,12.90
2023-05-24T09:18:48.635Z,12.80
2023-05-24T09:21:17.865Z,12.70
2023-05-24T09:23:48.609Z,12.70
2023-05-24T09:26:16.929Z,12.60
2023-05-24T09:28:45.226Z,12.70
2023-05-24T09:31:13.941Z,12.60
2023-05-24T09:33:42.473Z,12.80
2023-05-24T09:36:11.871Z,13.00
2023-05-24T09:38:40.188Z,13.00
2023-05-24T09:41:11.143Z,13.00
2023-05-24T09:43:50.125Z,13.10
2023-05-24T09:46:19.693Z,13.00
2023-05-24T09:48:57.742Z,12.90
2023-05-24T09:51:27.012Z,12.80
2023-05-24T09:53:59.053Z,12.80
2023-05-24T09:56:29.189Z,12.90
2023-05-24T09:58:58.194Z,13.00
2023-05-24T10:01:29.205Z,13.10
2023-05-24T10:03:59.360Z,13.10
2023-05-24T10:06:28.419Z,13.10
2023-05-24T10:08:57.870Z,13.00
2023-05-24T10:11:26.395Z,13.00
2023-05-24T10:13:57.026Z,12.80
2023-05-24T10:16:25.688Z,12.70
2023-05-24T10:18:54.515Z,12.50
2023-05-24T10:21:25.327Z,12.40
2023-05-24T10:23:59.233Z,12.30
2023-05-24T10:26:29.054Z,12.20
2023-05-24T10:29:02.843Z,12.10
2023-05-24T10:31:34.536Z,12.10
2023-05-24T10:34:08.667Z,12.10
2023-05-24T10:36:40.399Z,12.20
2023-05-24T10:39:12.414Z,12.40
2023-05-24T10:41:42.173Z,12.50
2023-05-24T10:44:19.764Z,12.60
2023-05-24T10:47:10.830Z,12.70
2023-05-24T10:49:39.869Z,12.80
2023-05-24T10:52:11.652Z,13.00
2023-05-24T10:54:46.955Z,13.30
2023-05-24T10:57:25.757Z,13.50
2023-05-24T10:59:58.513Z,13.70
2023-05-24T11:02:36.030Z,13.70
2023-05-24T11:05:07.562Z,13.70
2023-05-24T11:07:43.658Z,13.50
2023-05-24T11:10:16.820Z,13.50
2023-05-24T11:12:45.195Z,13.30
2023-05-24T11:15:24.617Z,13.20
2023-05-24T11:18:17.301Z,13.10
2023-05-24T11:20:47.024Z,13.10
2023-05-24T11:23:16.781Z,13.20
2023-05-24T11:25:46.348Z,13.20
2023-05-24T11:28:15.195Z,13.40
2023-05-24T11:30:46.212Z,13.60
2023-05-24T11:33:18.786Z,13.80
2023-05-24T11:35:47.544Z,14.10
2023-05-24T11:38:16.833Z,14.30
2023-05-24T11:40:47.096Z,14.30
2023-05-24T11:43:16.900Z,14.20
2023-05-24T11:45:48.807Z,13.90
2023-05-24T11:48:17.852Z,13.60
2023-05-24T11:50:50.203Z,13.60
2023-05-24T11:53:20.716Z,13.30
2023-05-24T11:55:49.041Z,13.10
2023-05-24T11:58:24.195Z,12.90
2023-05-24T12:00:54.023Z,12.80
2023-05-24T12:03:22.485Z,12.70
2023-05-24T12:05:51.400Z,12.60
2023-05-24T12:08:20.523Z,12.60
2023-05-24T12:10:51.788Z,12.70
2023-05-24T12:13:23.650Z,12.60
2023-05-24T12:15:56.494Z,12.60
2023-05-24T12:18:27.209Z,12.70
2023-05-24T12:20:55.896Z,12.80
2023-05-24T12:23:25.698Z,12.90
2023-05-24T12:25:59.904Z,13.00
2023-05-24T12:28:28.580Z,13.20
2023-05-24T12:30:59.141Z,13.40
2023-05-24T12:33:27.487Z,13.50
2023-05-24T12:35:56.453Z,13.90
2023-05-24T12:38:26.220Z,14.20
2023-05-24T12:41:11.408Z,14.80
2023-05-24T12:43:41.901Z,15.60
2023-05-24T12:46:11.748Z,15.90
2023-05-24T12:48:40.278Z,16.50
2023-05-24T12:51:09.411Z,16.60
2023-05-24T12:53:37.614Z,17.30
2023-05-24T12:56:06.057Z,17.30
2023-05-24T12:58:34.276Z,17.00
2023-05-24T13:01:02.568Z,16.40
2023-05-24T13:03:32.160Z,16.40
2023-05-24T13:06:00.606Z,16.20
2023-05-24T13:08:30.134Z,15.90
2023-05-24T13:10:58.359Z,15.80
2023-05-24T13:13:26.494Z,15.50
2023-05-24T13:15:55.020Z,15.30
2023-05-24T13:18:23.551Z,14.90
2023-05-24T13:20:53.322Z,14.60
2023-05-24T13:23:21.615Z,14.30
2023-05-24T13:25:49.838Z,14.10
2023-05-24T13:28:18.123Z,13.80
2023-05-24T13:30:46.683Z,13.50
2023-05-24T13:33:15.278Z,13.40
2023-05-24T13:35:43.734Z,13.20
2023-05-24T13:38:13.832Z,13.00
2023-05-24T13:40:42.172Z,12.90
2023-05-24T13:43:10.884Z,12.80
2023-05-24T13:45:39.308Z,12.80
2023-05-24T13:48:07.567Z,12.70
2023-05-24T13:50:37.025Z,12.80
2023-05-24T13:53:06.026Z,12.80
2023-05-24T13:55:37.746Z,12.80
2023-05-24T13:58:06.743Z,12.80
2023-05-24T14:00:36.288Z,12.80
2023-05-24T14:03:06.014Z,12.90
2023-05-24T14:05:34.447Z,12.90
2023-05-24T14:08:06.582Z,12.90
2023-05-24T14:10:37.371Z,12.80
2023-05-24T14:13:28.850Z,12.70
2023-05-24T14:15:54.443Z,12.70
2023-05-24T14:18:22.782Z,12.70
2023-05-24T14:20:51.058Z,12.60
2023-05-24T14:23:19.350Z,12.70
2023-05-24T14:25:50.581Z,12.70
2023-05-24T14:28:18.848Z,12.70
2023-05-24T14:30:47.129Z,12.80
2023-05-24T14:33:15.475Z,12.90
2023-05-24T14:35:44.013Z,12.90
2023-05-24T14:38:12.943Z,13.10
2023-05-24T14:40:42.407Z,13.30
2023-05-24T14:43:12.152Z,13.50
2023-05-24T14:45:42.348Z,13.50
2023-05-24T14:48:12.451Z,13.60
2023-05-24T14:50:41.776Z,13.50
2023-05-24T14:53:12.627Z,13.60
2023-05-24T14:55:42.755Z,13.70
2023-05-24T14:58:13.708Z,13.80
2023-05-24T15:00:43.882Z,13.70
2023-05-24T15:03:14.577Z,13.60
2023-05-24T15:05:43.670Z,13.50
2023-05-24T15:08:12.289Z,13.50
2023-05-24T15:10:40.924Z,13.40
2023-05-24T15:13:20.322Z,13.40
2023-05-24T15:15:48.532Z,13.40
2023-05-24T15:18:16.888Z,13.50
2023-05-24T15:20:45.236Z,13.60
2023-05-24T15:23:13.400Z,13.50
2023-05-24T15:25:42.873Z,13.50
2023-05-24T15:28:12.932Z,13.50
2023-05-24T15:30:44.227Z,13.50
2023-05-24T15:33:12.850Z,13.50
2023-05-24T15:35:41.163Z,13.60
2023-05-24T15:38:09.297Z,13.70
2023-05-24T15:40:38.483Z,13.80
2023-05-24T15:43:06.712Z,13.90
2023-05-24T15:45:34.757Z,14.00
2023-05-24T15:48:05.237Z,14.20
2023-05-24T15:50:57.310Z,14.30
2023-05-24T15:53:21.855Z,14.40
2023-05-24T15:55:50.110Z,14.40
2023-05-24T15:58:18.504Z,14.40
2023-05-24T16:00:46.649Z,14.30
2023-05-24T16:03:16.264Z,14.20
2023-05-24T16:05:44.711Z,14.20
2023-05-24T16:08:13.358Z,14.20
2023-05-24T16:10:41.690Z,14.20
2023-05-24T16:13:09.965Z,14.20
2023-05-24T16:15:40.879Z,14.20
2023-05-24T16:18:09.422Z,14.20
2023-05-24T16:20:38.969Z,14.20
2023-05-24T16:23:07.228Z,14.20
2023-05-24T16:25:35.400Z,14.20
2023-05-24T16:28:03.764Z,14.30
2023-05-24T16:30:31.864Z,14.50
2023-05-24T16:33:00.025Z,14.70
2023-05-24T16:35:28.092Z,15.00
2023-05-24T16:37:57.753Z,15.10
2023-05-24T16:40:25.916Z,15.40
2023-05-24T16:42:54.469Z,15.40
2023-05-24T16:45:22.601Z,15.30
2023-05-24T16:47:51.109Z,15.20
2023-05-24T16:50:19.377Z,15.10
2023-05-24T16:52:48.452Z,14.90
2023-05-24T16:55:18.089Z,14.80
2023-05-24T16:57:46.265Z,14.70
2023-05-24T17:00:16.379Z,14.60
2023-05-24T17:02:44.542Z,14.60
2023-05-24T17:05:12.686Z,14.50
2023-05-24T17:07:40.850Z,14.40
2023-05-24T17:10:09.945Z,14.40
2023-05-24T17:12:39.557Z,14.30
2023-05-24T17:15:08.500Z,14.30
2023-05-24T17:17:36.843Z,14.30
2023-05-24T17:20:05.863Z,14.20
2023-05-24T17:22:34.017Z,14.20
2023-05-24T17:25:02.118Z,14.10
2023-05-24T17:27:30.195Z,14.10
2023-05-24T17:29:59.624Z,14.10
2023-05-24T17:32:27.767Z,14.00
2023-05-24T17:34:55.903Z,13.90
2023-05-24T17:37:24.281Z,13.90
2023-05-24T17:39:52.535Z,13.70
2023-05-24T17:42:20.732Z,13.60
2023-05-24T17:44:48.755Z,13.50
2023-05-24T17:47:18.274Z,13.40
2023-05-24T17:49:46.364Z,13.30
2023-05-24T17:52:15.075Z,13.30
2023-05-24T17:54:43.158Z,13.20
2023-05-24T17:57:11.162Z,13.20
2023-05-24T17:59:39.208Z,13.20
2023-05-24T18:02:07.618Z,13.10
2023-05-24T18:04:37.037Z,13.00
2023-05-24T18:07:05.341Z,12.90
2023-05-24T18:09:33.403Z,12.90
2023-05-24T18:12:01.798Z,12.80
2023-05-24T18:14:32.086Z,12.70
2023-05-24T18:17:00.471Z,12.70
2023-05-24T18:19:28.598Z,12.60
2023-05-24T18:21:58.067Z,12.60
2023-05-24T18:24:26.522Z,12.50
2023-05-24T18:26:54.584Z,12.50
2023-05-24T18:29:22.659Z,12.50
2023-05-24T18:31:51.099Z,12.50
2023-05-24T18:34:19.181Z,12.50
2023-05-24T18:36:47.336Z,12.50
2023-05-24T18:39:17.212Z,12.60
2023-05-24T18:41:45.472Z,12.60
2023-05-24T18:44:14.633Z,12.50
2023-05-24T18:46:42.749Z,12.50
2023-05-24T18:49:12.728Z,12.40
2023-05-24T18:51:40.814Z,12.40
2023-05-24T18:54:09.090Z,12.30
2023-05-24T18:56:38.509Z,12.30
2023-05-24T18:59:06.646Z,12.20
2023-05-24T19:01:34.786Z,12.20
2023-05-24T19:04:02.839Z,12.10
2023-05-24T19:06:31.218Z,12.20
2023-05-24T19:09:00.154Z,12.10
2023-05-24T19:11:28.790Z,12.00
2023-05-24T19:13:58.246Z,12.00
2023-05-24T19:16:26.513Z,11.90
2023-05-24T19:18:54.739Z,11.80
2023-05-24T19:21:24.150Z,11.80
2023-05-24T19:23:52.388Z,11.70
2023-05-24T19:26:20.493Z,11.70
2023-05-24T19:28:51.967Z,11.50
2023-05-24T19:31:24.256Z,11.40
2023-05-24T19:34:00.527Z,11.20
2023-05-24T19:36:30.388Z,11.10
2023-05-24T19:38:58.568Z,11.00
2023-05-24T19:41:26.903Z,10.90
2023-05-24T19:43:58.602Z,10.80
2023-05-24T19:46:28.380Z,10.70
2023-05-24T19:48:56.674Z,10.60
2023-05-24T19:51:24.717Z,10.50
2023-05-24T19:53:52.801Z,10.40
2023-05-24T19:56:21.313Z,10.40
2023-05-24T19:58:50.053Z,10.30
2023-05-24T20:01:18.370Z,10.30
2023-05-24T20:03:49.199Z,10.20
2023-05-24T20:06:17.901Z,10.10
2023-05-24T20:08:48.076Z,10.10
2023-05-24T20:11:16.358Z,10.00
2023-05-24T20:13:44.738Z,10.00
2023-05-24T20:16:13.286Z,10.00
2023-05-24T20:18:41.568Z,9.90
2023-05-24T20:21:11.359Z,9.90
2023-05-24T20:23:39.469Z,9.90
2023-05-24T20:26:07.712Z,10.00
2023-05-24T20:28:36.159Z,9.70
2023-05-24T20:31:04.326Z,9.70
2023-05-24T20:33:33.496Z,9.60
2023-05-24T20:36:01.643Z,9.60
2023-05-24T20:38:31.738Z,9.50
2023-05-24T20:40:59.952Z,9.50
2023-05-24T20:43:28.085Z,9.50
2023-05-24T20:45:56.460Z,9.50
2023-05-24T20:48:25.653Z,9.40
2023-05-24T20:50:53.817Z,9.40
2023-05-24T20:53:21.968Z,9.30
2023-05-24T20:55:51.545Z,9.30
2023-05-24T20:58:19.610Z,9.20
2023-05-24T21:00:47.963Z,9.10
2023-05-24T21:03:16.366Z,9.20
2023-05-24T21:05:44.750Z,9.10
2023-05-24T21:08:13.206Z,9.00
2023-05-24T21:10:41.553Z,9.00
2023-05-24T21:13:18.515Z,9.00
2023-05-24T21:15:48.278Z,8.90
2023-05-24T21:18:16.690Z,8.80
2023-05-24T21:20:45.006Z,8.80
2023-05-24T21:23:13.285Z,8.70
2023-05-24T21:25:41.783Z,8.60
2023-05-24T21:28:10.395Z,8.60
2023-05-24T21:30:38.741Z,9.40
2023-05-24T21:33:08.420Z,8.50
2023-05-24T21:35:36.694Z,8.70
2023-05-24T21:38:04.913Z,8.50
2023-05-24T21:40:33.049Z,8.40
2023-05-24T21:43:01.256Z,8.50
2023-05-24T21:45:29.405Z,9.60
2023-05-24T21:47:57.598Z,8.40
2023-05-24T21:50:27.341Z,8.40
2023-05-24T21:52:55.582Z,8.40
2023-05-24T21:55:23.786Z,8.30
2023-05-24T21:57:52.948Z,8.30
2023-05-24T22:00:21.792Z,8.30
2023-05-24T22:02:50.094Z,8.20
2023-05-24T22:05:18.336Z,8.20
2023-05-24T22:07:47.823Z,8.20
2023-05-24T22:10:16.557Z,8.10
2023-05-24T22:12:44.688Z,8.10
2023-05-24T22:15:13.114Z,8.50
2023-05-24T22:17:41.941Z,8.50
2023-05-24T22:20:11.635Z,8.00
2023-05-24T22:22:48.808Z,8.00
2023-05-24T22:25:19.705Z,8.00
2023-05-24T22:27:48.519Z,8.00
2023-05-24T22:30:16.952Z,8.00
2023-05-24T22:32:45.600Z,8.30
2023-05-24T22:35:13.761Z,8.00
2023-05-24T22:37:41.968Z,9.30
2023-05-24T22:40:10.728Z,7.90
2023-05-24T22:42:40.510Z,7.80
2023-05-24T22:45:09.817Z,7.80
2023-05-24T22:47:39.962Z,7.80
2023-05-24T22:50:09.519Z,7.70
2023-05-24T22:52:42.453Z,7.70
2023-05-24T22:55:11.021Z,7.70
2023-05-24T22:57:40.582Z,7.70
2023-05-24T23:00:09.931Z,8.60
2023-05-24T23:02:38.199Z,7.60
2023-05-24T23:05:07.178Z,7.60
2023-05-24T23:07:37.487Z,7.50
2023-05-24T23:10:06.249Z,8.30
2023-05-24T23:12:34.439Z,7.50
2023-05-24T23:15:04.613Z,7.50
2023-05-24T23:17:32.877Z,8.20
2023-05-24T23:20:01.065Z,7.80
2023-05-24T23:22:29.901Z,7.40
2023-05-24T23:24:57.981Z,8.00
2023-05-24T23:27:26.127Z,7.40
2023-05-24T23:29:54.188Z,7.50
2023-05-24T23:32:23.803Z,7.40
2023-05-24T23:34:51.986Z,8.10
2023-05-24T23:37:20.118Z,7.40
2023-05-24T23:39:48.148Z,7.40
2023-05-24T23:42:16.455Z,7.50
2023-05-24T23:44:44.603Z,7.50
2023-05-24T23:47:12.751Z,7.60
2023-05-24T23:49:42.435Z,7.60
2023-05-24T23:52:10.699Z,7.60
2023-05-24T23:54:39.601Z,7.50
2023-05-24T23:57:08.358Z,7.40
2023-05-24T23:59:36.641Z,7.40
